sensor_id;sensor_type;location;lat;lon;timestamp;temperature;humidity
17879;DHT22;9065;51.050;13.758;2023-03-24T00:01:51;15.00;99.90
17879;DHT22;9065;51.050;13.758;2023-03-24T00:04:18;15.00;99.90
17879;DHT22;9065;51.050;13.758;2023-03-24T00:06:46;14.80;99.90
17879;DHT22;9065;51.050;13.758;2023-03-24T00:09:14;14.80;99.90
17879;DHT22;9065;51.050;13.758;2023-03-24T00:11:42;14.70;99.90
17879;DHT22;9065;51.050;13.758;2023-03-24T00:14:10;14.70;99.90
17879;DHT22;9065;51.050;13.758;2023-03-24T00:16:37;14.70;99.90
17879;DHT22;9065;51.050;13.758;2023-03-24T00:19:07;14.70;99.90
17879;DHT22;9065;51.050;13.758;2023-03-24T00:21:35;14.60;99.90
17879;DHT22;9065;51.050;13.758;2023-03-24T00:24:04;14.60;99.90
17879;DHT22;9065;51.050;13.758;2023-03-24T00:26:33;14.70;99.90
17879;DHT22;9065;51.050;13.758;2023-03-24T00:29:03;14.70;99.90
17879;DHT22;9065;51.050;13.758;2023-03-24T00:31:33;14.70;99.90
17879;DHT22;9065;51.050;13.758;2023-03-24T00:34:05;14.70;99.90
17879;DHT22;9065;51.050;13.758;2023-03-24T00:36:33;14.80;99.90
17879;DHT22;9065;51.050;13.758;2023-03-24T00:39:04;14.80;99.90
17879;DHT22;9065;51.050;13.758;2023-03-24T00:41:31;14.80;99.90
17879;DHT22;9065;51.050;13.758;2023-03-24T00:44:00;14.80;99.90
17879;DHT22;9065;51.050;13.758;2023-03-24T00:46:32;14.70;99.90
17879;DHT22;9065;51.050;13.758;2023-03-24T00:49:02;14.70;99.90
17879;DHT22;9065;51.050;13.758;2023-03-24T00:51:32;14.60;99.90
17879;DHT22;9065;51.050;13.758;2023-03-24T00:53:59;14.70;99.90
17879;DHT22;9065;51.050;13.758;2023-03-24T00:56:28;14.60;99.90
17879;DHT22;9065;51.050;13.758;2023-03-24T00:58:56;14.60;99.90
17879;DHT22;9065;51.050;13.758;2023-03-24T01:01:24;14.70;99.90
17879;DHT22;9065;51.050;13.758;2023-03-24T01:03:53;14.70;99.90
17879;DHT22;9065;51.050;13.758;2023-03-24T01:06:22;14.70;99.90
17879;DHT22;9065;51.050;13.758;2023-03-24T01:08:49;14.70;99.90
17879;DHT22;9065;51.050;13.758;2023-03-24T01:11:21;14.60;99.90
17879;DHT22;9065;51.050;13.758;2023-03-24T01:13:49;14.60;99.90
17879;DHT22;9065;51.050;13.758;2023-03-24T01:16:18;14.60;99.90
17879;DHT22;9065;51.050;13.758;2023-03-24T01:18:46;14.60;99.90
17879;DHT22;9065;51.050;13.758;2023-03-24T01:21:15;14.50;99.90
17879;DHT22;9065;51.050;13.758;2023-03-24T01:23:42;14.50;99.90
17879;DHT22;9065;51.050;13.758;2023-03-24T01:26:10;14.60;99.90
17879;DHT22;9065;51.050;13.758;2023-03-24T01:28:37;14.50;99.90
17879;DHT22;9065;51.050;13.758;2023-03-24T01:31:07;14.50;99.90
17879;DHT22;9065;51.050;13.758;2023-03-24T01:33:36;14.40;99.90
17879;DHT22;9065;51.050;13.758;2023-03-24T01:36:04;14.40;99.90
17879;DHT22;9065;51.050;13.758;2023-03-24T01:38:33;14.40;99.90
17879;DHT22;9065;51.050;13.758;2023-03-24T01:41:00;14.40;99.90
17879;DHT22;9065;51.050;13.758;2023-03-24T01:43:30;14.40;99.90
17879;DHT22;9065;51.050;13.758;2023-03-24T01:46:02;14.40;99.90
17879;DHT22;9065;51.050;13.758;2023-03-24T01:48:35;14.30;99.90
17879;DHT22;9065;51.050;13.758;2023-03-24T01:51:06;14.30;99.90
17879;DHT22;9065;51.050;13.758;2023-03-24T01:53:37;14.30;99.90
17879;DHT22;9065;51.050;13.758;2023-03-24T01:56:07;14.20;99.90
17879;DHT22;9065;51.050;13.758;2023-03-24T01:58:37;14.20;99.90
17879;DHT22;9065;51.050;13.758;2023-03-24T02:01:06;14.30;99.90
17879;DHT22;9065;51.050;13.758;2023-03-24T02:03:35;14.30;99.90
17879;DHT22;9065;51.050;13.758;2023-03-24T02:06:04;14.40;99.90
17879;DHT22;9065;51.050;13.758;2023-03-24T02:08:38;14.40;99.90
17879;DHT22;9065;51.050;13.758;2023-03-24T02:11:06;14.40;99.90
17879;DHT22;9065;51.050;13.758;2023-03-24T02:13:34;14.50;99.90
17879;DHT22;9065;51.050;13.758;2023-03-24T02:16:17;14.50;99.90
17879;DHT22;9065;51.050;13.758;2023-03-24T02:18:54;14.60;99.90
17879;DHT22;9065;51.050;13.758;2023-03-24T02:21:54;14.60;99.90
17879;DHT22;9065;51.050;13.758;2023-03-24T02:25:02;14.60;99.90
17879;DHT22;9065;51.050;13.758;2023-03-24T02:27:45;14.60;99.90
17879;DHT22;9065;51.050;13.758;2023-03-24T02:30:42;14.60;99.90
17879;DHT22;9065;51.050;13.758;2023-03-24T02:33:47;14.60;99.90
17879;DHT22;9065;51.050;13.758;2023-03-24T02:36:42;14.70;99.90
17879;DHT22;9065;51.050;13.758;2023-03-24T02:39:45;14.70;99.90
17879;DHT22;9065;51.050;13.758;2023-03-24T02:42:24;14.60;99.90
17879;DHT22;9065;51.050;13.758;2023-03-24T02:45:04;14.60;99.90
17879;DHT22;9065;51.050;13.758;2023-03-24T02:47:39;14.60;99.90
17879;DHT22;9065;51.050;13.758;2023-03-24T02:50:15;14.60;99.90
17879;DHT22;9065;51.050;13.758;2023-03-24T02:52:45;14.50;99.90
17879;DHT22;9065;51.050;13.758;2023-03-24T02:55:19;14.50;99.90
17879;DHT22;9065;51.050;13.758;2023-03-24T02:57:50;14.60;99.90
17879;DHT22;9065;51.050;13.758;2023-03-24T03:00:24;14.50;99.90
17879;DHT22;9065;51.050;13.758;2023-03-24T03:02:57;14.50;99.90
17879;DHT22;9065;51.050;13.758;2023-03-24T03:05:30;14.50;99.90
17879;DHT22;9065;51.050;13.758;2023-03-24T03:08:02;14.40;99.90
17879;DHT22;9065;51.050;13.758;2023-03-24T03:10:35;14.40;99.90
17879;DHT22;9065;51.050;13.758;2023-03-24T03:13:07;14.40;99.90
17879;DHT22;9065;51.050;13.758;2023-03-24T03:15:38;14.40;99.90
17879;DHT22;9065;51.050;13.758;2023-03-24T03:18:10;14.40;99.90
17879;DHT22;9065;51.050;13.758;2023-03-24T03:20:43;14.40;99.90
17879;DHT22;9065;51.050;13.758;2023-03-24T03:23:22;14.40;99.90
17879;DHT22;9065;51.050;13.758;2023-03-24T03:25:53;14.50;99.90
17879;DHT22;9065;51.050;13.758;2023-03-24T03:28:28;14.50;99.90
17879;DHT22;9065;51.050;13.758;2023-03-24T03:30:59;14.50;99.90
17879;DHT22;9065;51.050;13.758;2023-03-24T03:33:34;14.50;99.90
17879;DHT22;9065;51.050;13.758;2023-03-24T03:36:05;14.60;99.90
17879;DHT22;9065;51.050;13.758;2023-03-24T03:38:43;14.50;99.90
17879;DHT22;9065;51.050;13.758;2023-03-24T03:41:14;14.50;99.90
17879;DHT22;9065;51.050;13.758;2023-03-24T03:43:44;14.40;99.90
17879;DHT22;9065;51.050;13.758;2023-03-24T03:46:11;14.40;99.90
17879;DHT22;9065;51.050;13.758;2023-03-24T03:48:39;14.40;99.90
17879;DHT22;9065;51.050;13.758;2023-03-24T03:51:06;14.40;99.90
17879;DHT22;9065;51.050;13.758;2023-03-24T03:53:39;14.40;99.90
17879;DHT22;9065;51.050;13.758;2023-03-24T03:56:08;14.40;99.90
17879;DHT22;9065;51.050;13.758;2023-03-24T03:58:37;14.50;99.90
17879;DHT22;9065;51.050;13.758;2023-03-24T04:01:08;14.60;99.90
17879;DHT22;9065;51.050;13.758;2023-03-24T04:04:06;14.60;99.90
17879;DHT22;9065;51.050;13.758;2023-03-24T04:06:38;14.70;99.90
17879;DHT22;9065;51.050;13.758;2023-03-24T04:09:24;14.60;99.90
17879;DHT22;9065;51.050;13.758;2023-03-24T04:15:35;14.40;99.90
17879;DHT22;9065;51.050;13.758;2023-03-24T04:18:24;14.40;99.90
17879;DHT22;9065;51.050;13.758;2023-03-24T04:21:05;14.30;99.90
17879;DHT22;9065;51.050;13.758;2023-03-24T04:23:41;14.30;99.90
17879;DHT22;9065;51.050;13.758;2023-03-24T04:26:17;14.40;99.90
17879;DHT22;9065;51.050;13.758;2023-03-24T04:29:03;14.50;99.90
17879;DHT22;9065;51.050;13.758;2023-03-24T04:31:37;14.50;99.90
17879;DHT22;9065;51.050;13.758;2023-03-24T04:34:10;14.40;99.90
17879;DHT22;9065;51.050;13.758;2023-03-24T04:36:41;14.40;99.90
17879;DHT22;9065;51.050;13.758;2023-03-24T04:39:12;14.40;99.90
17879;DHT22;9065;51.050;13.758;2023-03-24T04:41:41;14.40;99.90
17879;DHT22;9065;51.050;13.758;2023-03-24T04:44:09;14.60;99.90
17879;DHT22;9065;51.050;13.758;2023-03-24T04:46:38;14.60;99.90
17879;DHT22;9065;51.050;13.758;2023-03-24T04:49:05;14.50;99.90
17879;DHT22;9065;51.050;13.758;2023-03-24T04:51:32;14.50;99.90
17879;DHT22;9065;51.050;13.758;2023-03-24T04:53:59;14.50;99.90
17879;DHT22;9065;51.050;13.758;2023-03-24T04:56:35;14.40;99.90
17879;DHT22;9065;51.050;13.758;2023-03-24T04:59:03;14.40;99.90
17879;DHT22;9065;51.050;13.758;2023-03-24T05:01:31;14.40;99.90
17879;DHT22;9065;51.050;13.758;2023-03-24T05:04:05;14.30;99.90
17879;DHT22;9065;51.050;13.758;2023-03-24T05:06:33;14.20;99.90
17879;DHT22;9065;51.050;13.758;2023-03-24T05:08:59;14.20;99.90
17879;DHT22;9065;51.050;13.758;2023-03-24T05:11:27;14.20;99.90
17879;DHT22;9065;51.050;13.758;2023-03-24T05:13:54;14.20;99.90
17879;DHT22;9065;51.050;13.758;2023-03-24T05:16:21;14.10;99.90
17879;DHT22;9065;51.050;13.758;2023-03-24T05:18:48;14.10;99.90
17879;DHT22;9065;51.050;13.758;2023-03-24T05:21:16;14.10;99.90
17879;DHT22;9065;51.050;13.758;2023-03-24T05:23:45;14.10;99.90
17879;DHT22;9065;51.050;13.758;2023-03-24T05:26:11;14.10;99.90
17879;DHT22;9065;51.050;13.758;2023-03-24T05:28:38;14.20;99.90
17879;DHT22;9065;51.050;13.758;2023-03-24T05:31:05;14.20;99.90
17879;DHT22;9065;51.050;13.758;2023-03-24T05:33:33;14.20;99.90
17879;DHT22;9065;51.050;13.758;2023-03-24T05:36:00;14.30;99.90
17879;DHT22;9065;51.050;13.758;2023-03-24T05:38:28;14.20;99.90
17879;DHT22;9065;51.050;13.758;2023-03-24T05:40:56;14.20;99.90
17879;DHT22;9065;51.050;13.758;2023-03-24T05:43:23;14.20;99.90
17879;DHT22;9065;51.050;13.758;2023-03-24T05:45:50;14.20;99.90
17879;DHT22;9065;51.050;13.758;2023-03-24T05:48:17;14.30;99.90
17879;DHT22;9065;51.050;13.758;2023-03-24T05:50:44;14.30;99.90
17879;DHT22;9065;51.050;13.758;2023-03-24T05:53:12;14.30;99.90
17879;DHT22;9065;51.050;13.758;2023-03-24T05:55:40;14.30;99.90
17879;DHT22;9065;51.050;13.758;2023-03-24T05:58:07;14.40;99.90
17879;DHT22;9065;51.050;13.758;2023-03-24T06:00:34;14.40;99.90
17879;DHT22;9065;51.050;13.758;2023-03-24T06:03:01;14.60;99.90
17879;DHT22;9065;51.050;13.758;2023-03-24T06:05:28;14.60;99.90
17879;DHT22;9065;51.050;13.758;2023-03-24T06:07:55;14.60;99.90
17879;DHT22;9065;51.050;13.758;2023-03-24T06:10:24;14.70;99.90
17879;DHT22;9065;51.050;13.758;2023-03-24T06:12:54;14.70;99.90
17879;DHT22;9065;51.050;13.758;2023-03-24T06:15:21;14.70;99.90
17879;DHT22;9065;51.050;13.758;2023-03-24T06:17:52;14.70;99.90
17879;DHT22;9065;51.050;13.758;2023-03-24T06:20:20;14.60;99.90
17879;DHT22;9065;51.050;13.758;2023-03-24T06:22:47;14.60;99.90
17879;DHT22;9065;51.050;13.758;2023-03-24T06:25:16;14.60;99.90
17879;DHT22;9065;51.050;13.758;2023-03-24T06:27:45;14.70;99.90
17879;DHT22;9065;51.050;13.758;2023-03-24T06:30:15;14.80;99.90
17879;DHT22;9065;51.050;13.758;2023-03-24T06:32:43;14.80;99.90
17879;DHT22;9065;51.050;13.758;2023-03-24T06:35:12;14.70;99.90
17879;DHT22;9065;51.050;13.758;2023-03-24T06:37:41;14.60;99.90
17879;DHT22;9065;51.050;13.758;2023-03-24T06:40:12;14.60;99.90
17879;DHT22;9065;51.050;13.758;2023-03-24T06:42:42;14.60;99.90
17879;DHT22;9065;51.050;13.758;2023-03-24T06:45:09;14.60;99.90
17879;DHT22;9065;51.050;13.758;2023-03-24T06:47:38;14.70;99.90
17879;DHT22;9065;51.050;13.758;2023-03-24T06:50:06;14.70;99.90
17879;DHT22;9065;51.050;13.758;2023-03-24T06:52:36;14.70;99.90
17879;DHT22;9065;51.050;13.758;2023-03-24T06:55:03;14.70;99.90
17879;DHT22;9065;51.050;13.758;2023-03-24T06:57:39;14.80;99.90
17879;DHT22;9065;51.050;13.758;2023-03-24T07:00:07;14.80;99.90
17879;DHT22;9065;51.050;13.758;2023-03-24T07:02:34;15.00;99.90
17879;DHT22;9065;51.050;13.758;2023-03-24T07:05:04;14.90;99.90
17879;DHT22;9065;51.050;13.758;2023-03-24T07:07:35;15.00;99.90
17879;DHT22;9065;51.050;13.758;2023-03-24T07:10:03;15.00;99.90
17879;DHT22;9065;51.050;13.758;2023-03-24T07:12:34;15.10;99.90
17879;DHT22;9065;51.050;13.758;2023-03-24T07:15:01;15.00;99.90
17879;DHT22;9065;51.050;13.758;2023-03-24T07:17:31;15.10;99.90
17879;DHT22;9065;51.050;13.758;2023-03-24T07:19:59;15.10;99.90
17879;DHT22;9065;51.050;13.758;2023-03-24T07:22:28;15.10;99.90
17879;DHT22;9065;51.050;13.758;2023-03-24T07:24:54;15.20;99.90
17879;DHT22;9065;51.050;13.758;2023-03-24T07:27:22;15.20;99.90
17879;DHT22;9065;51.050;13.758;2023-03-24T07:29:49;15.20;99.90
17879;DHT22;9065;51.050;13.758;2023-03-24T07:32:18;15.30;99.90
17879;DHT22;9065;51.050;13.758;2023-03-24T07:34:47;15.40;99.90
17879;DHT22;9065;51.050;13.758;2023-03-24T07:37:14;15.50;99.90
17879;DHT22;9065;51.050;13.758;2023-03-24T07:39:44;15.60;99.90
17879;DHT22;9065;51.050;13.758;2023-03-24T07:42:11;15.70;99.90
17879;DHT22;9065;51.050;13.758;2023-03-24T07:44:39;15.70;99.90
17879;DHT22;9065;51.050;13.758;2023-03-24T07:47:12;15.90;99.90
17879;DHT22;9065;51.050;13.758;2023-03-24T07:49:40;16.00;99.90
17879;DHT22;9065;51.050;13.758;2023-03-24T07:52:09;16.10;99.90
17879;DHT22;9065;51.050;13.758;2023-03-24T07:54:37;16.20;99.90
17879;DHT22;9065;51.050;13.758;2023-03-24T07:57:07;16.30;99.90
17879;DHT22;9065;51.050;13.758;2023-03-24T07:59:43;16.50;99.90
17879;DHT22;9065;51.050;13.758;2023-03-24T08:02:15;16.70;99.90
17879;DHT22;9065;51.050;13.758;2023-03-24T08:04:42;16.80;99.90
17879;DHT22;9065;51.050;13.758;2023-03-24T08:07:09;17.00;99.90
17879;DHT22;9065;51.050;13.758;2023-03-24T08:09:40;17.20;99.90
17879;DHT22;9065;51.050;13.758;2023-03-24T08:12:12;17.40;99.90
17879;DHT22;9065;51.050;13.758;2023-03-24T08:14:39;17.50;99.90
17879;DHT22;9065;51.050;13.758;2023-03-24T08:17:05;17.60;99.90
17879;DHT22;9065;51.050;13.758;2023-03-24T08:19:41;17.50;99.90
17879;DHT22;9065;51.050;13.758;2023-03-24T08:22:14;17.60;99.90
17879;DHT22;9065;51.050;13.758;2023-03-24T08:24:41;17.60;99.90
17879;DHT22;9065;51.050;13.758;2023-03-24T08:27:08;17.70;99.90
17879;DHT22;9065;51.050;13.758;2023-03-24T08:29:37;17.70;99.90
17879;DHT22;9065;51.050;13.758;2023-03-24T08:32:06;17.70;99.90
17879;DHT22;9065;51.050;13.758;2023-03-24T08:34:39;17.80;99.90
17879;DHT22;9065;51.050;13.758;2023-03-24T08:37:07;17.90;99.90
17879;DHT22;9065;51.050;13.758;2023-03-24T08:39:34;17.90;99.90
17879;DHT22;9065;51.050;13.758;2023-03-24T08:42:01;18.00;99.90
17879;DHT22;9065;51.050;13.758;2023-03-24T08:44:29;18.00;99.90
17879;DHT22;9065;51.050;13.758;2023-03-24T08:47:02;18.10;99.90
17879;DHT22;9065;51.050;13.758;2023-03-24T08:49:31;18.10;99.90
17879;DHT22;9065;51.050;13.758;2023-03-24T08:51:59;18.10;99.90
17879;DHT22;9065;51.050;13.758;2023-03-24T08:54:26;18.00;99.90
17879;DHT22;9065;51.050;13.758;2023-03-24T08:56:53;18.10;99.90
17879;DHT22;9065;51.050;13.758;2023-03-24T08:59:20;18.00;99.90
17879;DHT22;9065;51.050;13.758;2023-03-24T09:01:47;18.00;99.90
17879;DHT22;9065;51.050;13.758;2023-03-24T09:04:15;18.10;99.90
17879;DHT22;9065;51.050;13.758;2023-03-24T09:06:44;18.20;99.90
17879;DHT22;9065;51.050;13.758;2023-03-24T09:09:12;18.20;99.90
17879;DHT22;9065;51.050;13.758;2023-03-24T09:11:45;18.30;99.90
17879;DHT22;9065;51.050;13.758;2023-03-24T09:14:17;18.40;99.90
17879;DHT22;9065;51.050;13.758;2023-03-24T09:16:44;18.40;99.90
17879;DHT22;9065;51.050;13.758;2023-03-24T09:19:13;18.30;99.90
17879;DHT22;9065;51.050;13.758;2023-03-24T09:21:42;18.30;99.90
17879;DHT22;9065;51.050;13.758;2023-03-24T09:24:09;18.40;99.90
17879;DHT22;9065;51.050;13.758;2023-03-24T09:26:40;18.60;99.90
17879;DHT22;9065;51.050;13.758;2023-03-24T09:29:07;18.70;99.90
17879;DHT22;9065;51.050;13.758;2023-03-24T09:31:34;18.70;99.90
17879;DHT22;9065;51.050;13.758;2023-03-24T09:34:21;18.80;99.90
17879;DHT22;9065;51.050;13.758;2023-03-24T09:36:51;18.80;99.90
17879;DHT22;9065;51.050;13.758;2023-03-24T09:39:18;18.80;99.90
17879;DHT22;9065;51.050;13.758;2023-03-24T09:41:45;18.80;99.90
17879;DHT22;9065;51.050;13.758;2023-03-24T09:44:23;18.90;99.90
17879;DHT22;9065;51.050;13.758;2023-03-24T09:46:55;18.90;99.90
17879;DHT22;9065;51.050;13.758;2023-03-24T09:49:26;18.80;99.90
17879;DHT22;9065;51.050;13.758;2023-03-24T09:52:00;18.70;99.90
17879;DHT22;9065;51.050;13.758;2023-03-24T09:54:36;18.70;99.90
17879;DHT22;9065;51.050;13.758;2023-03-24T09:57:15;18.60;99.90
17879;DHT22;9065;51.050;13.758;2023-03-24T09:59:44;18.70;99.90
17879;DHT22;9065;51.050;13.758;2023-03-24T10:02:14;19.00;99.90
17879;DHT22;9065;51.050;13.758;2023-03-24T10:04:41;19.40;99.90
17879;DHT22;9065;51.050;13.758;2023-03-24T10:07:18;19.80;99.90
17879;DHT22;9065;51.050;13.758;2023-03-24T10:09:51;20.10;99.90
17879;DHT22;9065;51.050;13.758;2023-03-24T10:12:31;20.10;99.90
17879;DHT22;9065;51.050;13.758;2023-03-24T10:15:13;20.00;99.90
17879;DHT22;9065;51.050;13.758;2023-03-24T10:17:51;19.80;99.90
17879;DHT22;9065;51.050;13.758;2023-03-24T10:20:36;19.50;99.90
17879;DHT22;9065;51.050;13.758;2023-03-24T10:23:16;19.30;99.90
17879;DHT22;9065;51.050;13.758;2023-03-24T10:25:53;19.20;99.90
17879;DHT22;9065;51.050;13.758;2023-03-24T10:28:27;19.20;99.90
17879;DHT22;9065;51.050;13.758;2023-03-24T10:31:22;19.20;99.90
17879;DHT22;9065;51.050;13.758;2023-03-24T10:34:07;19.20;99.90
17879;DHT22;9065;51.050;13.758;2023-03-24T10:36:36;19.20;99.90
17879;DHT22;9065;51.050;13.758;2023-03-24T10:39:18;19.20;99.90
17879;DHT22;9065;51.050;13.758;2023-03-24T10:41:46;19.30;99.90
17879;DHT22;9065;51.050;13.758;2023-03-24T10:44:17;19.40;99.90
17879;DHT22;9065;51.050;13.758;2023-03-24T10:46:47;19.50;99.90
17879;DHT22;9065;51.050;13.758;2023-03-24T10:49:20;19.50;99.90
17879;DHT22;9065;51.050;13.758;2023-03-24T10:51:49;19.50;99.90
17879;DHT22;9065;51.050;13.758;2023-03-24T10:54:20;19.60;99.90
17879;DHT22;9065;51.050;13.758;2023-03-24T10:56:49;19.70;99.90
17879;DHT22;9065;51.050;13.758;2023-03-24T10:59:22;20.30;99.90
17879;DHT22;9065;51.050;13.758;2023-03-24T11:01:58;20.90;99.90
17879;DHT22;9065;51.050;13.758;2023-03-24T11:04:25;21.30;99.90
17879;DHT22;9065;51.050;13.758;2023-03-24T11:07:05;21.10;99.90
17879;DHT22;9065;51.050;13.758;2023-03-24T11:09:42;20.70;99.90
17879;DHT22;9065;51.050;13.758;2023-03-24T11:12:24;20.40;99.90
17879;DHT22;9065;51.050;13.758;2023-03-24T11:14:51;20.20;99.90
17879;DHT22;9065;51.050;13.758;2023-03-24T11:17:29;20.00;99.90
17879;DHT22;9065;51.050;13.758;2023-03-24T11:19:56;19.70;99.90
17879;DHT22;9065;51.050;13.758;2023-03-24T11:22:25;19.60;99.90
17879;DHT22;9065;51.050;13.758;2023-03-24T11:24:59;19.50;99.90
17879;DHT22;9065;51.050;13.758;2023-03-24T11:27:31;19.30;99.90
17879;DHT22;9065;51.050;13.758;2023-03-24T11:30:12;19.30;99.90
17879;DHT22;9065;51.050;13.758;2023-03-24T11:32:44;19.30;99.90
17879;DHT22;9065;51.050;13.758;2023-03-24T11:35:16;19.50;99.90
17879;DHT22;9065;51.050;13.758;2023-03-24T11:37:44;19.60;99.90
17879;DHT22;9065;51.050;13.758;2023-03-24T11:40:29;19.70;99.90
17879;DHT22;9065;51.050;13.758;2023-03-24T11:43:18;20.00;99.90
17879;DHT22;9065;51.050;13.758;2023-03-24T11:45:57;20.30;99.90
17879;DHT22;9065;51.050;13.758;2023-03-24T11:48:32;20.50;99.90
17879;DHT22;9065;51.050;13.758;2023-03-24T11:51:04;20.50;99.90
17879;DHT22;9065;51.050;13.758;2023-03-24T11:53:37;20.50;99.90
17879;DHT22;9065;51.050;13.758;2023-03-24T11:56:15;20.50;99.90
17879;DHT22;9065;51.050;13.758;2023-03-24T11:59:05;20.40;99.90
17879;DHT22;9065;51.050;13.758;2023-03-24T12:01:47;20.20;99.90
17879;DHT22;9065;51.050;13.758;2023-03-24T12:04:23;20.00;99.90
17879;DHT22;9065;51.050;13.758;2023-03-24T12:10:19;19.90;99.90
17879;DHT22;9065;51.050;13.758;2023-03-24T12:12:56;19.90;99.90
17879;DHT22;9065;51.050;13.758;2023-03-24T12:15:36;20.10;99.90
17879;DHT22;9065;51.050;13.758;2023-03-24T12:18:32;20.40;99.90
17879;DHT22;9065;51.050;13.758;2023-03-24T12:21:06;20.70;99.90
17879;DHT22;9065;51.050;13.758;2023-03-24T12:23:56;21.10;99.90
17879;DHT22;9065;51.050;13.758;2023-03-24T12:26:25;21.30;99.90
17879;DHT22;9065;51.050;13.758;2023-03-24T12:29:24;21.20;99.90
17879;DHT22;9065;51.050;13.758;2023-03-24T12:32:11;20.90;99.90
17879;DHT22;9065;51.050;13.758;2023-03-24T12:34:50;20.50;99.90
17879;DHT22;9065;51.050;13.758;2023-03-24T12:37:25;20.10;99.90
17879;DHT22;9065;51.050;13.758;2023-03-24T12:40:04;19.90;99.90
17879;DHT22;9065;51.050;13.758;2023-03-24T12:42:40;19.90;99.90
17879;DHT22;9065;51.050;13.758;2023-03-24T12:45:23;19.60;99.90
17879;DHT22;9065;51.050;13.758;2023-03-24T12:48:20;19.40;99.90
17879;DHT22;9065;51.050;13.758;2023-03-24T12:51:00;19.40;99.90
17879;DHT22;9065;51.050;13.758;2023-03-24T12:53:44;19.30;99.90
17879;DHT22;9065;51.050;13.758;2023-03-24T12:56:15;19.30;99.90
17879;DHT22;9065;51.050;13.758;2023-03-24T12:58:48;19.20;99.90
17879;DHT22;9065;51.050;13.758;2023-03-24T13:01:31;19.20;99.90
17879;DHT22;9065;51.050;13.758;2023-03-24T13:04:05;19.20;99.90
17879;DHT22;9065;51.050;13.758;2023-03-24T13:06:37;19.20;99.90
17879;DHT22;9065;51.050;13.758;2023-03-24T13:09:13;19.30;99.90
17879;DHT22;9065;51.050;13.758;2023-03-24T13:11:49;19.30;99.90
17879;DHT22;9065;51.050;13.758;2023-03-24T13:14:23;19.30;99.90
17879;DHT22;9065;51.050;13.758;2023-03-24T13:16:53;19.30;99.90
17879;DHT22;9065;51.050;13.758;2023-03-24T13:19:23;19.20;99.90
17879;DHT22;9065;51.050;13.758;2023-03-24T13:21:53;19.00;99.90
17879;DHT22;9065;51.050;13.758;2023-03-24T13:24:23;19.00;99.90
17879;DHT22;9065;51.050;13.758;2023-03-24T13:26:57;19.00;99.90
17879;DHT22;9065;51.050;13.758;2023-03-24T13:29:40;19.00;99.90
17879;DHT22;9065;51.050;13.758;2023-03-24T13:32:25;18.90;99.90
17879;DHT22;9065;51.050;13.758;2023-03-24T13:35:04;18.90;99.90
17879;DHT22;9065;51.050;13.758;2023-03-24T13:37:36;19.00;99.90
17879;DHT22;9065;51.050;13.758;2023-03-24T13:40:20;19.10;99.90
17879;DHT22;9065;51.050;13.758;2023-03-24T13:42:53;19.20;99.90
17879;DHT22;9065;51.050;13.758;2023-03-24T13:45:29;19.40;99.90
17879;DHT22;9065;51.050;13.758;2023-03-24T13:48:14;19.50;99.90
17879;DHT22;9065;51.050;13.758;2023-03-24T13:50:52;19.60;99.90
17879;DHT22;9065;51.050;13.758;2023-03-24T13:53:29;19.70;99.90
17879;DHT22;9065;51.050;13.758;2023-03-24T13:55:57;19.70;99.90
17879;DHT22;9065;51.050;13.758;2023-03-24T14:01:35;19.30;99.90
17879;DHT22;9065;51.050;13.758;2023-03-24T14:04:46;18.90;99.90
17879;DHT22;9065;51.050;13.758;2023-03-24T14:07:34;17.90;99.90
17879;DHT22;9065;51.050;13.758;2023-03-24T14:10:47;16.60;99.90
17879;DHT22;9065;51.050;13.758;2023-03-24T14:13:34;15.80;99.90
17879;DHT22;9065;51.050;13.758;2023-03-24T14:19:23;14.40;99.90
17879;DHT22;9065;51.050;13.758;2023-03-24T14:21:56;14.10;99.90
17879;DHT22;9065;51.050;13.758;2023-03-24T14:24:25;13.90;99.90
17879;DHT22;9065;51.050;13.758;2023-03-24T14:26:52;13.80;99.90
17879;DHT22;9065;51.050;13.758;2023-03-24T14:29:47;13.70;99.90
17879;DHT22;9065;51.050;13.758;2023-03-24T14:32:17;13.70;99.90
17879;DHT22;9065;51.050;13.758;2023-03-24T14:34:54;13.70;99.90
17879;DHT22;9065;51.050;13.758;2023-03-24T14:37:24;13.60;99.90
17879;DHT22;9065;51.050;13.758;2023-03-24T14:39:52;13.60;99.90
17879;DHT22;9065;51.050;13.758;2023-03-24T14:42:53;13.70;99.90
17879;DHT22;9065;51.050;13.758;2023-03-24T14:45:41;13.90;99.90
17879;DHT22;9065;51.050;13.758;2023-03-24T14:48:24;14.20;99.90
17879;DHT22;9065;51.050;13.758;2023-03-24T14:50:54;14.20;99.90
17879;DHT22;9065;51.050;13.758;2023-03-24T14:54:02;14.00;99.90
17879;DHT22;9065;51.050;13.758;2023-03-24T14:56:46;13.90;99.90
17879;DHT22;9065;51.050;13.758;2023-03-24T14:59:26;13.80;99.90
17879;DHT22;9065;51.050;13.758;2023-03-24T15:02:00;13.90;99.90
17879;DHT22;9065;51.050;13.758;2023-03-24T15:04:29;13.90;99.90
17879;DHT22;9065;51.050;13.758;2023-03-24T15:07:02;13.90;99.90
17879;DHT22;9065;51.050;13.758;2023-03-24T15:09:35;14.00;99.90
17879;DHT22;9065;51.050;13.758;2023-03-24T15:12:03;14.20;99.90
17879;DHT22;9065;51.050;13.758;2023-03-24T15:14:34;14.30;99.90
17879;DHT22;9065;51.050;13.758;2023-03-24T15:17:05;14.40;99.90
17879;DHT22;9065;51.050;13.758;2023-03-24T15:19:33;14.50;99.90
17879;DHT22;9065;51.050;13.758;2023-03-24T15:22:02;14.50;99.90
17879;DHT22;9065;51.050;13.758;2023-03-24T15:24:33;14.60;99.90
17879;DHT22;9065;51.050;13.758;2023-03-24T15:27:22;14.60;99.90
17879;DHT22;9065;51.050;13.758;2023-03-24T15:29:56;14.70;99.90
17879;DHT22;9065;51.050;13.758;2023-03-24T15:32:25;14.60;99.90
17879;DHT22;9065;51.050;13.758;2023-03-24T15:34:58;14.70;99.90
17879;DHT22;9065;51.050;13.758;2023-03-24T15:37:30;14.60;99.90
17879;DHT22;9065;51.050;13.758;2023-03-24T15:39:59;14.70;99.90
17879;DHT22;9065;51.050;13.758;2023-03-24T15:42:26;14.70;99.90
17879;DHT22;9065;51.050;13.758;2023-03-24T15:45:09;14.60;99.90
17879;DHT22;9065;51.050;13.758;2023-03-24T15:47:38;14.50;99.90
17879;DHT22;9065;51.050;13.758;2023-03-24T15:50:29;14.50;99.90
17879;DHT22;9065;51.050;13.758;2023-03-24T15:53:02;14.50;99.90
17879;DHT22;9065;51.050;13.758;2023-03-24T15:55:32;14.30;99.90
17879;DHT22;9065;51.050;13.758;2023-03-24T15:58:01;14.20;99.90
17879;DHT22;9065;51.050;13.758;2023-03-24T16:00:40;14.20;99.90
17879;DHT22;9065;51.050;13.758;2023-03-24T16:03:06;14.20;99.90
17879;DHT22;9065;51.050;13.758;2023-03-24T16:05:34;14.40;99.90
17879;DHT22;9065;51.050;13.758;2023-03-24T16:08:03;14.40;99.90
17879;DHT22;9065;51.050;13.758;2023-03-24T16:10:34;14.40;99.90
17879;DHT22;9065;51.050;13.758;2023-03-24T16:13:17;14.50;99.90
17879;DHT22;9065;51.050;13.758;2023-03-24T16:15:46;14.50;99.90
17879;DHT22;9065;51.050;13.758;2023-03-24T16:18:15;14.60;99.90
17879;DHT22;9065;51.050;13.758;2023-03-24T16:20:43;14.50;99.90